createdAt,value
2018-08-23T00:00:47.524Z,18.01
2018-08-23T00:03:22.133Z,17.95
2018-08-23T00:05:54.888Z,17.89
2018-08-23T00:08:24.755Z,17.97
2018-08-23T00:10:55.169Z,17.83
2018-08-23T00:13:35.493Z,17.95
2018-08-23T00:16:05.643Z,17.82
2018-08-23T00:18:35.678Z,17.78
2018-08-23T00:21:06.943Z,17.80
2018-08-23T00:23:36.290Z,17.73
2018-08-23T00:26:05.755Z,17.63
2018-08-23T00:28:36.457Z,17.74
2018-08-23T00:31:05.939Z,17.61
2018-08-23T00:33:35.345Z,17.63
2018-08-23T00:36:04.799Z,17.64
2018-08-23T00:38:34.152Z,17.47
2018-08-23T00:41:04.379Z,17.62
2018-08-23T00:43:33.783Z,17.58
2018-08-23T00:46:07.577Z,17.43
2018-08-23T00:48:37.051Z,17.23
2018-08-23T00:51:07.566Z,17.41
2018-08-23T00:53:37.770Z,17.41
2018-08-23T00:56:19.235Z,17.27
2018-08-23T00:58:53.989Z,17.34
2018-08-23T01:01:23.389Z,17.34
2018-08-23T01:03:53.680Z,17.26
2018-08-23T01:06:24.401Z,17.35
2018-08-23T01:08:53.947Z,17.28
2018-08-23T01:11:23.330Z,17.23
2018-08-23T01:13:52.873Z,17.18
2018-08-23T01:16:22.318Z,17.15
2018-08-23T01:18:51.969Z,17.08
2018-08-23T01:21:21.450Z,17.04
2018-08-23T01:23:50.966Z,17.11
2018-08-23T01:26:20.987Z,17.11
2018-08-23T01:28:50.722Z,17.13
2018-08-23T01:31:29.169Z,16.99
2018-08-23T01:34:00.134Z,16.88
2018-08-23T01:36:36.037Z,16.98
2018-08-23T01:39:11.760Z,16.85
2018-08-23T01:41:41.813Z,16.87
2018-08-23T01:44:11.090Z,16.87
2018-08-23T01:46:45.546Z,16.85
2018-08-23T01:49:15.699Z,16.82
2018-08-23T01:51:45.107Z,16.72
2018-08-23T01:54:14.752Z,16.82
2018-08-23T01:56:44.807Z,16.79
2018-08-23T01:59:14.988Z,16.76
2018-08-23T02:01:44.512Z,16.87
2018-08-23T02:04:13.940Z,16.77
2018-08-23T02:06:43.625Z,16.80
2018-08-23T02:09:13.535Z,16.74
2018-08-23T02:11:42.956Z,16.70
2018-08-23T02:14:12.523Z,16.62
2018-08-23T02:16:51.892Z,16.70
2018-08-23T02:19:22.141Z,16.44
2018-08-23T02:21:51.515Z,16.53
2018-08-23T02:24:24.886Z,16.41
2018-08-23T02:26:54.325Z,16.55
2018-08-23T02:29:34.551Z,16.48
2018-08-23T02:32:04.856Z,16.33
2018-08-23T02:34:40.847Z,16.47
2018-08-23T02:37:12.483Z,16.48
2018-08-23T02:39:42.388Z,16.56
2018-08-23T02:42:15.079Z,16.53
2018-08-23T02:44:45.586Z,16.39
2018-08-23T02:47:15.733Z,16.30
2018-08-23T02:49:45.226Z,16.32
2018-08-23T02:52:15.252Z,16.37
2018-08-23T02:54:44.614Z,16.36
2018-08-23T02:57:13.918Z,16.35
2018-08-23T02:59:43.464Z,16.20
2018-08-23T03:02:13.941Z,16.02
2018-08-23T03:04:43.243Z,16.09
2018-08-23T03:07:12.626Z,15.85
2018-08-23T03:09:45.661Z,16.08
2018-08-23T03:12:19.568Z,16.01
2018-08-23T03:14:49.809Z,16.07
2018-08-23T03:17:23.953Z,16.13
2018-08-23T03:20:01.565Z,16.20
2018-08-23T03:22:32.488Z,16.10
2018-08-23T03:25:03.879Z,16.13
2018-08-23T03:27:33.397Z,16.12
2018-08-23T03:30:03.769Z,16.01
2018-08-23T03:32:33.309Z,16.03
2018-08-23T03:35:03.132Z,16.01
2018-08-23T03:37:33.039Z,16.20
2018-08-23T03:40:03.686Z,15.95
2018-08-23T03:42:33.580Z,15.89
2018-08-23T03:45:03.097Z,15.84
2018-08-23T03:47:39.411Z,16.02
2018-08-23T03:50:10.223Z,15.87
2018-08-23T03:52:40.848Z,15.84
2018-08-23T03:55:11.852Z,15.79
2018-08-23T03:57:46.638Z,15.77
2018-08-23T04:00:15.829Z,15.81
2018-08-23T04:02:45.421Z,15.81
2018-08-23T04:05:19.961Z,15.63
2018-08-23T04:07:49.481Z,15.63
2018-08-23T04:10:19.819Z,15.71
2018-08-23T04:12:49.406Z,15.69
2018-08-23T04:15:31.678Z,15.74
2018-08-23T04:18:06.231Z,15.64
2018-08-23T04:20:36.040Z,15.71
2018-08-23T04:23:05.715Z,15.80
2018-08-23T04:25:36.032Z,15.80
2018-08-23T04:28:05.546Z,15.77
2018-08-23T04:30:34.978Z,15.83
2018-08-23T04:33:04.882Z,15.70
2018-08-23T04:35:34.351Z,15.69
2018-08-23T04:38:03.949Z,15.66
2018-08-23T04:40:33.260Z,15.63
2018-08-23T04:43:02.649Z,15.58
2018-08-23T04:45:35.243Z,15.66
2018-08-23T04:48:06.938Z,15.72
2018-08-23T04:50:37.177Z,15.85
2018-08-23T04:53:07.438Z,15.93
2018-08-23T04:55:36.895Z,15.88
2018-08-23T04:58:07.265Z,16.03
2018-08-23T05:00:37.022Z,15.97
2018-08-23T05:03:06.682Z,15.93
2018-08-23T05:05:36.049Z,15.88
2018-08-23T05:08:05.439Z,15.93
2018-08-23T05:10:36.318Z,16.14
2018-08-23T05:13:05.816Z,16.16
2018-08-23T05:15:35.253Z,16.69
2018-08-23T05:18:04.834Z,17.00
2018-08-23T05:20:34.213Z,17.08
2018-08-23T05:23:05.606Z,17.05
2018-08-23T05:25:34.884Z,17.22
2018-08-23T05:28:14.495Z,17.37
2018-08-23T05:30:44.997Z,17.44
2018-08-23T05:33:19.684Z,17.58
2018-08-23T05:35:49.121Z,17.69
2018-08-23T05:38:19.474Z,17.81
2018-08-23T05:41:00.635Z,18.06
2018-08-23T05:43:30.098Z,18.15
2018-08-23T05:45:59.848Z,18.32
2018-08-23T05:48:30.178Z,18.53
2018-08-23T05:51:00.314Z,18.64
2018-08-23T05:53:29.887Z,18.75
2018-08-23T05:56:00.522Z,18.74
2018-08-23T05:58:32.234Z,18.89
2018-08-23T06:01:02.062Z,19.05
2018-08-23T06:03:31.276Z,19.16
2018-08-23T06:06:00.600Z,19.28
2018-08-23T06:08:30.218Z,19.33
2018-08-23T06:11:06.101Z,19.57
2018-08-23T06:13:35.649Z,19.76
2018-08-23T06:16:06.084Z,19.80
2018-08-23T06:18:35.449Z,19.87
2018-08-23T06:21:05.083Z,20.02
2018-08-23T06:24:06.335Z,19.98
2018-08-23T06:26:46.266Z,20.19
2018-08-23T06:29:20.240Z,20.59
2018-08-23T06:32:12.028Z,19.93
2018-08-23T06:34:47.024Z,19.53
2018-08-23T06:37:17.753Z,19.71
2018-08-23T06:39:47.146Z,19.70
2018-08-23T06:42:16.549Z,19.89
2018-08-23T06:44:53.771Z,19.97
2018-08-23T06:47:26.237Z,19.92
2018-08-23T06:49:56.773Z,20.12
2018-08-23T06:52:50.718Z,20.20
2018-08-23T06:55:26.971Z,20.70
2018-08-23T06:58:02.206Z,20.49
2018-08-23T07:00:32.004Z,20.60
2018-08-23T07:03:01.781Z,20.50
2018-08-23T07:05:31.635Z,20.82
2018-08-23T07:08:01.906Z,21.11
2018-08-23T07:10:31.388Z,21.32
2018-08-23T07:13:01.723Z,21.50
2018-08-23T07:15:31.232Z,21.64
2018-08-23T07:18:07.305Z,21.36
2018-08-23T07:20:37.666Z,21.62
2018-08-23T07:23:17.495Z,21.90
2018-08-23T07:25:47.144Z,22.46
2018-08-23T07:28:16.678Z,22.40
2018-08-23T07:30:47.240Z,22.36
2018-08-23T07:33:16.931Z,22.26
2018-08-23T07:35:46.453Z,22.51
2018-08-23T07:38:15.932Z,22.31
2018-08-23T07:40:46.364Z,22.92
2018-08-23T07:43:16.050Z,22.60
2018-08-23T07:45:45.445Z,22.92
2018-08-23T07:48:14.962Z,23.69
2018-08-23T07:50:44.270Z,23.58
2018-08-23T07:53:14.002Z,23.87
2018-08-23T07:55:43.708Z,24.15
2018-08-23T07:58:13.582Z,23.61
2018-08-23T08:00:44.631Z,24.21
2018-08-23T08:03:15.111Z,24.46
2018-08-23T08:05:45.791Z,24.16
2018-08-23T08:08:15.463Z,24.80
2018-08-23T08:10:46.029Z,25.17
2018-08-23T08:13:15.338Z,24.51
2018-08-23T08:15:44.798Z,25.09
2018-08-23T08:18:19.681Z,24.77
2018-08-23T08:20:55.030Z,24.74
2018-08-23T08:23:24.776Z,25.30
2018-08-23T08:25:54.186Z,25.23
2018-08-23T08:28:24.729Z,25.06
2018-08-23T08:30:59.849Z,25.53
2018-08-23T08:33:35.049Z,25.66
2018-08-23T08:36:05.186Z,26.12
2018-08-23T08:38:35.234Z,26.26
2018-08-23T08:41:04.981Z,25.61
2018-08-23T08:43:34.642Z,26.11
2018-08-23T08:46:04.093Z,26.30
2018-08-23T08:48:36.405Z,26.08
2018-08-23T08:51:22.578Z,26.41
2018-08-23T08:53:52.995Z,26.42
2018-08-23T08:56:27.119Z,26.49
2018-08-23T08:58:56.611Z,26.88
2018-08-23T09:01:27.110Z,26.99
2018-08-23T09:03:57.092Z,26.89
2018-08-23T09:06:31.832Z,26.74
2018-08-23T09:09:05.995Z,27.14
2018-08-23T09:11:35.787Z,27.80
2018-08-23T09:14:05.852Z,28.11
2018-08-23T09:16:35.283Z,28.04
2018-08-23T09:19:06.285Z,27.83
2018-08-23T09:21:35.697Z,28.08
2018-08-23T09:24:20.051Z,27.46
2018-08-23T09:26:49.435Z,27.85
2018-08-23T09:29:30.163Z,27.82
2018-08-23T09:32:11.986Z,28.60
2018-08-23T09:34:42.183Z,28.75
2018-08-23T09:37:12.737Z,28.69
2018-08-23T09:39:42.247Z,28.72
2018-08-23T09:42:11.899Z,28.57
2018-08-23T09:44:54.136Z,28.63
2018-08-23T09:47:24.684Z,28.84
2018-08-23T09:49:54.190Z,28.70
2018-08-23T09:52:38.896Z,29.22
2018-08-23T09:55:10.341Z,28.89
2018-08-23T09:57:39.770Z,28.79
2018-08-23T10:00:11.466Z,28.66
2018-08-23T10:02:45.974Z,28.87
2018-08-23T10:05:20.317Z,29.27
2018-08-23T10:07:54.957Z,29.49
2018-08-23T10:10:29.601Z,29.54
2018-08-23T10:13:05.211Z,29.16
2018-08-23T10:15:40.505Z,29.67
2018-08-23T10:18:15.484Z,29.53
2018-08-23T10:20:51.124Z,29.41
2018-08-23T10:23:23.102Z,29.22
2018-08-23T10:25:54.189Z,28.96
2018-08-23T10:28:25.033Z,29.40
2018-08-23T10:30:54.878Z,29.28
2018-08-23T10:33:24.150Z,29.22
2018-08-23T10:35:54.778Z,28.65
2018-08-23T10:38:26.782Z,28.58
2018-08-23T10:41:02.160Z,28.83
2018-08-23T10:43:36.441Z,28.42
2018-08-23T10:46:06.922Z,28.62
2018-08-23T10:48:36.417Z,29.37
2018-08-23T10:51:06.283Z,29.80
2018-08-23T10:53:35.749Z,29.79
2018-08-23T10:56:05.573Z,29.16
2018-08-23T10:58:36.007Z,28.74
2018-08-23T11:01:06.002Z,28.88
2018-08-23T11:03:35.550Z,28.78
2018-08-23T11:06:05.191Z,28.74
2018-08-23T11:08:36.655Z,28.68
2018-08-23T11:11:11.456Z,28.79
2018-08-23T11:13:48.062Z,29.32
2018-08-23T11:16:22.792Z,29.29
2018-08-23T11:18:57.468Z,29.67
2018-08-23T11:21:27.049Z,29.53
2018-08-23T11:23:56.552Z,29.10
2018-08-23T11:26:27.357Z,28.76
2018-08-23T11:28:57.570Z,28.68
2018-08-23T11:31:29.546Z,28.74
2018-08-23T11:33:59.927Z,28.45
2018-08-23T11:36:29.324Z,28.43
2018-08-23T11:38:58.653Z,28.39
2018-08-23T11:41:28.221Z,28.42
2018-08-23T11:43:58.292Z,28.08
2018-08-23T11:46:27.893Z,28.34
2018-08-23T11:48:57.369Z,28.23
2018-08-23T11:51:27.113Z,28.31
2018-08-23T11:53:57.362Z,28.09
2018-08-23T11:56:26.882Z,27.82
2018-08-23T11:58:56.412Z,27.63
2018-08-23T12:01:26.090Z,27.50
2018-08-23T12:03:55.524Z,27.60
2018-08-23T12:06:24.786Z,27.72
2018-08-23T12:08:54.216Z,27.76
2018-08-23T12:11:23.543Z,27.81
2018-08-23T12:13:53.554Z,27.93
2018-08-23T12:16:22.847Z,28.12
2018-08-23T12:18:52.134Z,28.17
2018-08-23T12:21:21.750Z,28.11
2018-08-23T12:23:51.568Z,28.11
2018-08-23T12:26:21.829Z,28.22
2018-08-23T12:29:09.411Z,27.98
2018-08-23T12:31:39.411Z,28.05
2018-08-23T12:34:10.404Z,27.91
2018-08-23T12:36:45.146Z,27.84
2018-08-23T12:41:23.517Z,27.92
2018-08-23T12:43:53.795Z,27.26
2018-08-23T12:46:23.440Z,27.51
2018-08-23T12:48:57.656Z,26.72
2018-08-23T12:51:27.927Z,27.04
2018-08-23T12:53:57.275Z,26.79
2018-08-23T12:56:26.736Z,27.07
2018-08-23T12:58:56.178Z,26.86
2018-08-23T13:01:25.574Z,27.14
2018-08-23T13:03:55.983Z,27.17
2018-08-23T13:06:25.395Z,27.00
2018-08-23T13:08:55.835Z,26.49
2018-08-23T13:11:26.278Z,26.70
2018-08-23T13:13:55.806Z,26.62
2018-08-23T13:16:25.230Z,26.85
2018-08-23T13:18:55.341Z,26.88
2018-08-23T13:21:25.411Z,26.56
2018-08-23T13:23:54.908Z,26.67
2018-08-23T13:26:29.479Z,26.25
2018-08-23T13:28:58.884Z,26.52
2018-08-23T13:31:28.245Z,26.36
2018-08-23T13:33:57.690Z,26.14
2018-08-23T13:36:27.134Z,26.29
2018-08-23T13:38:56.623Z,26.07
2018-08-23T13:41:25.736Z,26.23
2018-08-23T13:43:54.886Z,26.25
2018-08-23T13:46:24.264Z,26.55
2018-08-23T13:48:53.765Z,26.47
2018-08-23T13:51:23.271Z,26.56
2018-08-23T13:53:52.418Z,26.37
2018-08-23T13:56:22.027Z,26.58
2018-08-23T13:58:51.472Z,26.42
2018-08-23T14:01:26.076Z,26.43
2018-08-23T14:03:56.335Z,26.13
2018-08-23T14:06:25.920Z,25.98
2018-08-23T14:08:55.346Z,26.29
2018-08-23T14:11:24.795Z,25.64
2018-08-23T14:13:54.224Z,25.72
2018-08-23T14:16:24.471Z,26.07
2018-08-23T14:18:54.697Z,26.13
2018-08-23T14:21:24.061Z,25.93
2018-08-23T14:23:53.506Z,26.11
2018-08-23T14:26:23.036Z,26.06
2018-08-23T14:28:52.500Z,26.06
2018-08-23T14:31:22.284Z,26.27
2018-08-23T14:33:51.748Z,26.40
2018-08-23T14:36:21.570Z,26.50
2018-08-23T14:38:50.993Z,26.49
2018-08-23T14:41:20.585Z,26.38
2018-08-23T14:43:50.008Z,26.42
2018-08-23T14:46:25.296Z,26.49
2018-08-23T14:48:54.899Z,26.45
2018-08-23T14:51:24.299Z,26.53
2018-08-23T14:53:53.733Z,26.55
2018-08-23T14:56:29.674Z,26.60
2018-08-23T14:58:59.161Z,26.65
2018-08-23T15:01:28.920Z,26.74
2018-08-23T15:03:59.457Z,26.85
2018-08-23T15:06:29.297Z,26.94
2018-08-23T15:08:58.720Z,27.07
2018-08-23T15:11:28.921Z,27.10
2018-08-23T15:13:59.861Z,27.16
2018-08-23T15:16:30.203Z,27.17
2018-08-23T15:19:01.805Z,27.32
2018-08-23T15:21:31.586Z,27.38
2018-08-23T15:24:02.727Z,27.31
2018-08-23T15:26:32.873Z,27.36
2018-08-23T15:29:02.428Z,27.51
2018-08-23T15:31:33.010Z,27.45
2018-08-23T15:34:02.529Z,27.38
2018-08-23T15:36:32.203Z,27.39
2018-08-23T15:39:01.649Z,27.36
2018-08-23T15:41:31.372Z,27.24
2018-08-23T15:44:03.403Z,27.13
2018-08-23T15:46:38.470Z,27.07
2018-08-23T15:49:08.104Z,27.05
2018-08-23T15:51:38.783Z,26.95
2018-08-23T15:54:09.339Z,26.85
2018-08-23T15:56:39.618Z,26.82
2018-08-23T15:59:09.520Z,26.71
2018-08-23T16:01:38.977Z,26.71
2018-08-23T16:04:09.152Z,26.45
2018-08-23T16:06:38.731Z,26.31
2018-08-23T16:09:09.620Z,26.23
2018-08-23T16:11:39.186Z,26.00
2018-08-23T16:14:09.860Z,25.92
2018-08-23T16:16:50.818Z,25.82
2018-08-23T16:19:25.917Z,25.70
2018-08-23T16:21:56.148Z,25.58
2018-08-23T16:24:25.964Z,25.48
2018-08-23T16:27:00.515Z,25.43
2018-08-23T16:29:30.014Z,25.26
2018-08-23T16:31:59.312Z,25.03
2018-08-23T16:34:29.043Z,24.96
2018-08-23T16:36:58.349Z,24.77
2018-08-23T16:39:28.220Z,24.73
2018-08-23T16:41:57.462Z,24.64
2018-08-23T16:44:26.543Z,24.57
2018-08-23T16:46:56.250Z,24.57
2018-08-23T16:49:25.661Z,24.57
2018-08-23T16:51:54.987Z,24.47
2018-08-23T16:54:24.265Z,24.54
2018-08-23T16:56:53.915Z,24.46
2018-08-23T16:59:23.189Z,24.39
2018-08-23T17:01:52.539Z,24.26
2018-08-23T17:04:26.047Z,24.19
2018-08-23T17:06:55.566Z,24.20
2018-08-23T17:09:24.981Z,24.02
2018-08-23T17:11:54.376Z,23.99
2018-08-23T17:14:24.034Z,24.07
2018-08-23T17:16:58.495Z,23.98
2018-08-23T17:19:29.350Z,24.05
2018-08-23T17:21:58.856Z,23.93
2018-08-23T17:24:29.270Z,23.68
2018-08-23T17:26:58.882Z,23.59
2018-08-23T17:29:28.272Z,23.59
2018-08-23T17:31:57.682Z,23.55
2018-08-23T17:34:27.450Z,23.52
2018-08-23T17:36:57.226Z,23.23
2018-08-23T17:39:26.765Z,23.22
2018-08-23T17:41:56.226Z,23.10
2018-08-23T17:44:25.957Z,23.17
2018-08-23T17:46:57.593Z,23.00
2018-08-23T17:49:27.195Z,22.98
2018-08-23T17:51:57.034Z,23.21
2018-08-23T17:54:27.539Z,23.14
2018-08-23T17:56:57.065Z,23.16
2018-08-23T17:59:26.464Z,23.09
2018-08-23T18:01:57.383Z,22.99
2018-08-23T18:04:26.900Z,23.01
2018-08-23T18:06:56.334Z,22.94
2018-08-23T18:09:26.415Z,23.12
2018-08-23T18:11:56.095Z,23.00
2018-08-23T18:14:25.976Z,22.82
2018-08-23T18:16:59.958Z,22.63
2018-08-23T18:19:29.626Z,22.79
2018-08-23T18:21:59.172Z,22.85
2018-08-23T18:24:28.629Z,22.74
2018-08-23T18:26:58.395Z,22.62
2018-08-23T18:29:28.048Z,22.51
2018-08-23T18:31:58.055Z,22.43
2018-08-23T18:36:55.945Z,22.36
2018-08-23T18:39:25.224Z,22.54
2018-08-23T18:41:54.723Z,22.32
2018-08-23T18:44:24.677Z,22.31
2018-08-23T18:46:55.166Z,22.29
2018-08-23T18:49:24.694Z,22.05
2018-08-23T18:51:54.220Z,21.99
2018-08-23T18:54:24.056Z,22.00
2018-08-23T18:56:53.588Z,22.03
2018-08-23T18:59:22.943Z,21.73
2018-08-23T19:01:52.187Z,21.80
2018-08-23T19:04:21.473Z,21.87
2018-08-23T19:06:51.090Z,21.75
2018-08-23T19:09:20.563Z,21.66
2018-08-23T19:11:50.346Z,21.46
2018-08-23T19:14:20.878Z,21.59
2018-08-23T19:16:55.094Z,21.46
2018-08-23T19:19:25.602Z,21.53
2018-08-23T19:21:55.308Z,21.42
2018-08-23T19:24:25.116Z,21.23
2018-08-23T19:26:54.599Z,21.41
2018-08-23T19:29:25.741Z,21.71
2018-08-23T19:31:57.192Z,21.85
2018-08-23T19:34:27.317Z,21.94
2018-08-23T19:36:56.982Z,22.07
2018-08-23T19:39:26.465Z,22.27
2018-08-23T19:41:56.380Z,22.22
2018-08-23T19:44:25.964Z,22.25
2018-08-23T19:48:03.623Z,22.15
2018-08-23T19:50:33.065Z,22.16
2018-08-23T19:53:02.602Z,22.22
2018-08-23T19:55:32.104Z,22.21
2018-08-23T19:58:01.668Z,22.14
2018-08-23T20:00:31.359Z,22.23
2018-08-23T20:03:00.845Z,22.23
2018-08-23T20:05:33.513Z,22.17
2018-08-23T20:08:03.174Z,22.21
2018-08-23T20:10:33.321Z,22.12
2018-08-23T20:13:02.867Z,22.17
2018-08-23T20:15:32.340Z,22.24
2018-08-23T20:18:02.015Z,22.14
2018-08-23T20:20:31.450Z,22.14
2018-08-23T20:23:01.421Z,22.23
2018-08-23T20:25:30.954Z,22.10
2018-08-23T20:28:00.401Z,22.21
2018-08-23T20:30:30.098Z,22.17
2018-08-23T20:33:00.721Z,22.20
2018-08-23T20:35:31.011Z,22.14
2018-08-23T20:38:00.997Z,22.09
2018-08-23T20:40:30.490Z,21.94
2018-08-23T20:43:00.066Z,21.75
2018-08-23T20:45:29.682Z,21.48
2018-08-23T20:47:59.068Z,21.46
2018-08-23T20:50:28.293Z,21.30
2018-08-23T20:52:57.704Z,21.30
2018-08-23T20:55:27.098Z,21.21
2018-08-23T20:57:56.658Z,20.94
2018-08-23T21:00:26.205Z,20.83
2018-08-23T21:02:55.750Z,20.93
2018-08-23T21:05:25.156Z,20.84
2018-08-23T21:07:54.649Z,20.69
2018-08-23T21:10:23.843Z,20.97
2018-08-23T21:12:53.256Z,21.14
2018-08-23T21:15:23.212Z,21.04
2018-08-23T21:17:52.769Z,20.99
2018-08-23T21:20:22.838Z,20.88
2018-08-23T21:22:52.625Z,20.82
2018-08-23T21:25:22.530Z,20.77
2018-08-23T21:27:52.030Z,20.63
2018-08-23T21:30:21.449Z,20.63
2018-08-23T21:32:50.855Z,20.57
2018-08-23T21:35:19.873Z,20.48
2018-08-23T21:37:49.006Z,20.36
2018-08-23T21:40:18.221Z,20.39
2018-08-23T21:42:47.467Z,20.37
2018-08-23T21:45:16.590Z,20.32
2018-08-23T21:47:46.252Z,19.83
2018-08-23T21:50:16.622Z,19.92
2018-08-23T21:52:45.768Z,20.13
2018-08-23T21:55:14.862Z,20.08
2018-08-23T21:57:44.169Z,19.97
2018-08-23T22:00:13.503Z,19.90
2018-08-23T22:02:42.993Z,19.89
2018-08-23T22:05:12.608Z,19.94
2018-08-23T22:07:42.344Z,20.01
2018-08-23T22:10:11.747Z,20.02
2018-08-23T22:12:41.256Z,20.09
2018-08-23T22:15:10.825Z,19.55
2018-08-23T22:17:40.313Z,19.42
2018-08-23T22:20:09.785Z,19.43
2018-08-23T22:22:39.303Z,19.52
2018-08-23T22:25:08.722Z,19.38
2018-08-23T22:27:38.514Z,19.37
2018-08-23T22:30:07.935Z,19.44
2018-08-23T22:32:37.333Z,19.40
2018-08-23T22:35:06.785Z,19.59
2018-08-23T22:37:36.191Z,19.53
2018-08-23T22:40:05.532Z,19.61
2018-08-23T22:42:34.954Z,19.22
2018-08-23T22:45:04.181Z,19.11
2018-08-23T22:47:33.608Z,19.22
2018-08-23T22:50:03.100Z,18.83
2018-08-23T22:52:32.422Z,18.99
2018-08-23T22:55:01.853Z,19.06
2018-08-23T22:57:31.548Z,19.10
2018-08-23T23:00:00.753Z,19.07
2018-08-23T23:02:35.221Z,19.07
2018-08-23T23:05:04.557Z,19.04
2018-08-23T23:07:34.155Z,18.96
2018-08-23T23:10:04.235Z,19.01
2018-08-23T23:12:33.809Z,18.95
2018-08-23T23:15:11.291Z,18.95
2018-08-23T23:17:40.811Z,18.93
2018-08-23T23:20:10.217Z,18.58
2018-08-23T23:22:40.089Z,18.55
2018-08-23T23:25:09.579Z,18.54
2018-08-23T23:27:38.599Z,18.39
2018-08-23T23:30:08.127Z,18.46
2018-08-23T23:32:37.277Z,18.53
2018-08-23T23:35:06.764Z,18.48
2018-08-23T23:37:36.076Z,18.51
2018-08-23T23:40:05.474Z,18.59
2018-08-23T23:42:34.894Z,18.60
2018-08-23T23:45:04.269Z,18.50
2018-08-23T23:47:33.778Z,18.51
2018-08-23T23:50:03.168Z,18.50
2018-08-23T23:52:32.473Z,18.40
2018-08-23T23:55:01.783Z,18.29
2018-08-23T23:57:31.159Z,18.22
